This is the latest recevied weather packets stored in our database for station/object N5YHM-13. If no packets are shown the sender has not sent any weather packets the latest 10 day(s).
| Time | Temp. | Humidity | Pressure | Rain* | Wind** | Luminosity | Snow |
|---|---|---|---|---|---|---|---|
| 1787866245 | 28.89° C | 80% | 1015.5 hPa | 0 mm | - | 16 W/m² | - |
| 1787865941 | 28.89° C | 80% | 1015.4 hPa | 0 mm | - | 21 W/m² | - |
| 1787865637 | 28.89° C | 77% | 1015.6 hPa | 0 mm | - | 21 W/m² | - |
| 1787865336 | 28.33° C | 83% | 1015.9 hPa | 0 mm | - | 21 W/m² | - |
| 1787865032 | 28.89° C | 84% | 1015.9 hPa | 0 mm | - | 22 W/m² | - |
| 1787864727 | 28.89° C | 80% | 1015.9 hPa | 0 mm | - | 14 W/m² | - |
| 1787864427 | 29.44° C | 77% | 1015.9 hPa | 0 mm | - | 20 W/m² | - |
| 1787864126 | 28.89° C | 78% | 1015.9 hPa | 1.78 mm | - | 23 W/m² | - |
| 1787863825 | 28.89° C | 80% | 1016.1 hPa | 1.78 mm | - | 21 W/m² | - |
| 1787863524 | 28.89° C | 79% | 1016 hPa | 0 mm | - | 31 W/m² | - |
| 1787863220 | 28.89° C | 81% | 1016.2 hPa | 0 mm | - | 252 W/m² | - |
| 1787862915 | 28.33° C | 82% | 1015.8 hPa | 0 mm | - | 17 W/m² | - |
| 1787862610 | 28.33° C | 78% | 1016.4 hPa | 0 mm | - | 44 W/m² | - |
| 1787862305 | 28.89° C | 82% | 1016.2 hPa | 0 mm | - | 13 W/m² | - |
| 1787862001 | 28.89° C | 79% | 1016.4 hPa | 1.27 mm | - | 36 W/m² | - |
| 1787861694 | 28.89° C | 84% | 1016.5 hPa | 1.27 mm | - | 20 W/m² | - |
| 1787861393 | 28.33° C | 82% | 1016.6 hPa | 0 mm | - | 41 W/m² | - |
| 1787861088 | 28.33° C | 82% | 1016.7 hPa | 0 mm | - | 70 W/m² | - |
| 1787860786 | 28.33° C | 81% | 1016.8 hPa | 0 mm | - | 39 W/m² | - |
| 1787860482 | 27.78° C | 82% | 1016.8 hPa | 0 mm | - | 67 W/m² | - |
| 1787860181 | 27.78° C | 84% | 1017 hPa | 0 mm | - | 40 W/m² | - |
| 1787859877 | 27.78° C | 87% | 1016.9 hPa | 1.78 mm | - | 36 W/m² | - |
| 1787859572 | 27.78° C | 87% | 1016.9 hPa | 1.78 mm | - | 34 W/m² | - |
| 1787859267 | 27.78° C | 88% | 1016.9 hPa | 0 mm | - | 35 W/m² | - |
| 1787858964 | 27.78° C | 83% | 1016.8 hPa | 0 mm | - | 36 W/m² | - |
* Rain latest hour (hover to see other rain measurements)
** Current wind speed in m/s (hover to see current wind gust speed)